createdAt,value
2023-05-25T12:22:40.407Z,2.15
2023-05-25T12:25:08.403Z,2.88
2023-05-25T12:27:35.081Z,2.55
2023-05-25T12:30:01.686Z,2.88
2023-05-25T12:32:28.426Z,2.30
2023-05-25T12:35:08.029Z,2.53
2023-05-25T12:37:34.655Z,2.75
2023-05-25T12:40:01.297Z,2.83
2023-05-25T12:42:30.020Z,2.95
2023-05-25T12:44:59.012Z,2.78
2023-05-25T12:47:28.593Z,2.25
2023-05-25T12:50:12.605Z,2.65
2023-05-25T12:52:44.308Z,2.47
2023-05-25T12:55:27.494Z,2.17
2023-05-25T12:57:59.402Z,3.10
2023-05-25T13:00:34.018Z,2.60
2023-05-25T13:03:01.032Z,2.55
2023-05-25T13:05:33.967Z,2.90
2023-05-25T13:08:01.848Z,2.23
2023-05-25T13:10:35.713Z,2.80
2023-05-25T13:15:29.089Z,2.38
2023-05-25T13:17:58.494Z,2.60
2023-05-25T13:20:26.477Z,2.70
2023-05-25T13:22:56.705Z,2.90
2023-05-25T13:25:28.265Z,2.72
2023-05-25T13:27:57.710Z,2.60
2023-05-25T13:30:26.447Z,3.30
2023-05-25T13:32:53.271Z,2.47
2023-05-25T13:35:37.166Z,3.00
2023-05-25T13:38:04.032Z,2.50
2023-05-25T13:40:30.633Z,2.55
2023-05-25T13:42:57.595Z,3.28
2023-05-25T13:45:24.554Z,2.60
2023-05-25T13:47:52.052Z,2.95
2023-05-25T13:50:18.770Z,2.45
2023-05-25T13:52:45.406Z,2.75
2023-05-25T13:55:12.122Z,3.15
2023-05-25T13:57:38.747Z,3.63
2023-05-25T14:00:07.587Z,2.92
2023-05-25T14:02:35.418Z,3.05
2023-05-25T14:05:03.044Z,3.05
2023-05-25T14:07:30.043Z,3.05
2023-05-25T14:09:58.120Z,3.47
2023-05-25T14:12:25.429Z,2.95
2023-05-25T14:14:52.003Z,2.83
2023-05-25T14:17:18.587Z,3.28
2023-05-25T14:19:45.316Z,2.65
2023-05-25T14:22:14.373Z,2.70
2023-05-25T14:24:41.672Z,2.72
2023-05-25T14:27:08.463Z,2.38
2023-05-25T14:29:35.052Z,3.50
2023-05-25T14:32:01.882Z,3.17
2023-05-25T14:34:29.447Z,2.85
2023-05-25T14:36:56.181Z,3.35
2023-05-25T14:39:22.809Z,3.45
2023-05-25T14:41:49.412Z,3.08
2023-05-25T14:44:16.479Z,2.95
2023-05-25T14:46:43.299Z,3.83
2023-05-25T14:49:10.052Z,3.35
2023-05-25T14:51:37.710Z,3.33
2023-05-25T14:54:06.155Z,3.10
2023-05-25T14:56:32.715Z,3.80
2023-05-25T14:58:59.284Z,2.72
2023-05-25T15:01:26.173Z,2.75
2023-05-25T15:03:53.012Z,2.60
2023-05-25T15:06:19.803Z,3.25
2023-05-25T15:08:46.418Z,3.67
2023-05-25T15:11:13.016Z,3.78
2023-05-25T15:13:40.847Z,2.50
2023-05-25T15:16:11.163Z,2.80
2023-05-25T15:18:37.819Z,2.95
2023-05-25T15:21:04.439Z,2.58
2023-05-25T15:23:32.005Z,2.30
2023-05-25T15:26:03.057Z,2.42
2023-05-25T15:28:32.956Z,2.20
2023-05-25T15:31:02.513Z,2.63
2023-05-25T15:33:44.481Z,2.35
2023-05-25T15:36:14.903Z,2.20
2023-05-25T15:38:43.364Z,1.80
2023-05-25T15:41:11.323Z,2.70
2023-05-25T15:43:38.002Z,3.13
2023-05-25T15:46:04.604Z,3.17
2023-05-25T15:48:31.184Z,3.03
2023-05-25T15:50:57.752Z,2.42
2023-05-25T15:53:24.398Z,2.20
2023-05-25T15:55:51.517Z,2.22
2023-05-25T15:58:18.367Z,2.30
2023-05-25T16:00:44.957Z,2.53
2023-05-25T16:03:11.636Z,2.25
2023-05-25T16:05:38.300Z,1.75
2023-05-25T16:08:04.870Z,2.58
2023-05-25T16:10:31.447Z,2.33
2023-05-25T16:12:58.047Z,2.10
2023-05-25T16:15:24.651Z,2.45
2023-05-25T16:17:51.279Z,2.33
2023-05-25T16:20:17.923Z,2.55
2023-05-25T16:22:44.560Z,2.30
2023-05-25T16:25:11.396Z,2.75
2023-05-25T16:27:38.022Z,2.40
2023-05-25T16:30:05.328Z,2.35
2023-05-25T16:32:32.730Z,2.30
2023-05-25T16:34:59.513Z,2.65
2023-05-25T16:37:26.082Z,2.40
2023-05-25T16:39:52.802Z,2.63
2023-05-25T16:42:19.790Z,2.00
2023-05-25T16:44:46.362Z,1.75
2023-05-25T16:47:12.978Z,1.80
2023-05-25T16:49:39.543Z,2.13
2023-05-25T16:52:06.282Z,1.95
2023-05-25T16:54:32.833Z,1.85
2023-05-25T16:56:59.452Z,1.75
2023-05-25T16:59:26.053Z,1.67
2023-05-25T17:01:52.939Z,1.92
2023-05-25T17:04:19.682Z,1.98
2023-05-25T17:06:46.320Z,2.17
2023-05-25T17:09:13.008Z,2.30
2023-05-25T17:11:39.594Z,1.83
2023-05-25T17:14:06.254Z,1.83
2023-05-25T17:16:32.936Z,2.25
2023-05-25T17:18:59.547Z,2.10
2023-05-25T17:21:27.001Z,2.08
2023-05-25T17:23:53.592Z,1.75
2023-05-25T17:26:20.261Z,2.28
2023-05-25T17:28:47.001Z,2.42
2023-05-25T17:31:13.638Z,1.67
2023-05-25T17:33:40.322Z,1.92
2023-05-25T17:36:07.508Z,1.98
2023-05-25T17:38:36.888Z,2.78
